Monarch, Montana
Current Conditions -  °F | °C
As of 6:56 AM on Tuesday 27 Jan 2015 (Local Time) from KGFA Reporting Station
Scattered Clouds Scattered Clouds  
Wind Chill: 41°   Ceiling: Unl
Heat Index: 47°   Visibility: 10mi
Dew Point: 29°   Wind: 14mph
Humidity: 49%   Direction: 210°SSW
Pressure: 29.9"   Gusts: NA
Location:  47.1°N, 110.83°W
Report Text: KGFA 271356Z AUTO 21012KT 10SM SCT250 08/M02 A2990 RMK AO2 SLP140 T00831018
Loading
Personal Weather Stations






























Interactive Weather Map New forecast layout! Learn more

10-Day Weather Forecast

Advertisements
Track Severe Weather on mobile